Time;durP1;ratioP1;P1;durP2;ratioP2;P2;SDS_P1;SDS_P2;PMS_P1;PMS_P2;Temp;Humidity;BMP_temperature;BMP_pressure;BME280_temperature;BME280_humidity;BME280_pressure;Samples;Min_cycle;Max_cycle;Signal;HPM_P1;HPM_P2
2020/12/21 00:00:17;;;;;;;3.27;2.97;;;;;;;9.96;70.61;97307.47;5104451;28;20650;-70
2020/12/21 00:02:47;;;;;;;3.93;3.30;;;;;;;10.12;69.89;97312.09;5112472;28;21007;-69
2020/12/21 00:05:13;;;;;;;3.67;2.87;;;;;;;10.05;70.15;97323.28;5085691;28;20433;-70
2020/12/21 00:07:39;;;;;;;3.27;2.97;;;;;;;9.95;70.31;97316.31;5110801;28;20547;-69
2020/12/21 00:10:05;;;;;;;3.83;3.10;;;;;;;10.08;70.36;97315.13;5110822;28;20548;-67
2020/12/21 00:12:32;;;;;;;3.07;2.77;;;;;;;9.97;70.18;97313.53;5111481;28;20188;-69
2020/12/21 00:14:58;;;;;;;4.13;2.80;;;;;;;10.08;69.56;97315.94;5111665;28;20466;-71
2020/12/21 00:17:24;;;;;;;2.97;2.50;;;;;;;10.30;69.03;97316.50;5112157;28;20478;-71
2020/12/21 00:19:50;;;;;;;4.30;2.90;;;;;;;10.35;69.02;97318.69;5093124;28;20455;-70
2020/12/21 00:22:17;;;;;;;3.10;2.80;;;;;;;10.21;68.88;97317.41;5110765;28;20184;-71
2020/12/21 00:24:44;;;;;;;7.03;2.90;;;;;;;9.97;70.52;97316.97;5112186;28;20177;-68
2020/12/21 00:27:10;;;;;;;4.80;2.90;;;;;;;10.28;69.25;97316.66;5112711;28;20446;-70
2020/12/21 00:29:35;;;;;;;3.93;2.90;;;;;;;9.70;70.82;97316.97;5111733;28;20457;-68
2020/12/21 00:32:01;;;;;;;3.60;2.90;;;;;;;9.79;70.53;97319.53;5093619;28;20189;-70
2020/12/21 00:34:27;;;;;;;4.30;2.93;;;;;;;9.80;70.80;97317.75;5105119;28;20206;-68
2020/12/21 00:36:54;;;;;;;3.13;2.83;;;;;;;9.92;70.86;97315.75;5088847;28;20686;-70
2020/12/21 00:39:21;;;;;;;3.00;2.60;;;;;;;10.09;69.29;97314.97;5096472;28;20184;-70
2020/12/21 00:41:47;;;;;;;2.53;2.33;;;;;;;10.43;68.18;97318.81;5097334;28;20411;-70
2020/12/21 00:44:13;;;;;;;3.17;2.87;;;;;;;10.49;67.92;97312.97;5115290;28;20414;-70
2020/12/21 00:46:39;;;;;;;4.13;3.10;;;;;;;10.47;67.69;97308.84;5115261;28;20516;-69
2020/12/21 00:49:06;;;;;;;3.40;3.10;;;;;;;10.52;67.54;97306.63;5114710;28;20418;-70
2020/12/21 00:51:32;;;;;;;3.20;2.77;;;;;;;10.52;67.77;97312.66;5115504;28;20471;-68
2020/12/21 00:53:57;;;;;;;3.30;3.00;;;;;;;10.05;69.38;97324.09;5097150;28;20956;-70
2020/12/21 00:56:24;;;;;;;3.03;2.73;;;;;;;10.18;68.95;97326.38;5098300;28;20199;-69
2020/12/21 00:58:50;;;;;;;4.40;3.10;;;;;;;10.11;69.46;97320.06;5115508;27;20184;-71
2020/12/21 01:01:20;;;;;;;3.80;3.20;;;;;;;9.86;70.37;97326.81;5115186;28;20419;-69
2020/12/21 01:03:46;;;;;;;3.97;3.10;;;;;;;10.30;68.48;97319.97;5114447;28;20725;-69
2020/12/21 01:06:13;;;;;;;3.47;2.90;;;;;;;10.47;67.90;97320.13;5103502;28;20434;-68
2020/12/21 01:08:39;;;;;;;3.20;2.80;;;;;;;10.53;67.51;97324.81;5115275;28;20421;-68
2020/12/21 01:11:12;;;;;;;3.03;2.73;;;;;;;10.08;69.13;97325.63;5114026;28;20427;-67
2020/12/21 01:13:39;;;;;;;3.50;3.03;;;;;;;10.40;68.27;97330.38;5116254;28;20454;-71
2020/12/21 01:16:05;;;;;;;3.47;2.80;;;;;;;10.18;68.85;97329.00;5114939;28;20439;-70
2020/12/21 01:18:30;;;;;;;3.57;2.90;;;;;;;9.85;70.55;97331.22;5114172;28;20426;-69
2020/12/21 01:20:56;;;;;;;4.23;3.17;;;;;;;9.58;70.93;97330.22;5114555;27;20183;-70
2020/12/21 01:23:22;;;;;;;3.30;3.00;;;;;;;9.67;71.12;97329.38;5115968;28;20177;-69
2020/12/21 01:25:48;;;;;;;3.77;2.97;;;;;;;9.80;70.72;97334.28;5115395;28;20258;-70
2020/12/21 01:28:14;;;;;;;5.40;2.70;;;;;;;10.17;68.79;97329.97;5115364;28;20415;-68
2020/12/21 01:30:39;;;;;;;4.77;3.17;;;;;;;10.17;68.87;97326.50;5114866;28;20272;-69
2020/12/21 01:33:05;;;;;;;3.33;3.00;;;;;;;10.15;68.61;97321.44;5113962;28;20688;-69
2020/12/21 01:35:31;;;;;;;4.33;2.80;;;;;;;10.27;67.85;97325.50;5103725;28;20177;-69
2020/12/21 01:37:56;;;;;;;3.10;2.20;;;;;;;10.01;68.54;97322.75;5113913;28;20223;-70
2020/12/21 01:40:22;;;;;;;3.30;2.60;;;;;;;10.03;68.51;97327.84;5113947;28;20230;-69
2020/12/21 01:42:48;;;;;;;3.20;2.90;;;;;;;9.93;68.98;97338.34;5113661;28;20234;-70
2020/12/21 01:45:14;;;;;;;3.30;2.50;;;;;;;10.12;67.86;97334.81;5114956;28;20201;-68
2020/12/21 01:47:40;;;;;;;3.03;2.10;;;;;;;10.17;67.24;97323.88;5113054;28;20736;-69
2020/12/21 01:50:06;;;;;;;3.30;2.80;;;;;;;10.15;67.21;97332.72;5112941;28;20925;-69
2020/12/21 01:52:32;;;;;;;6.97;2.17;;;;;;;10.05;67.42;97328.53;5112477;28;20180;-69
2020/12/21 01:54:59;;;;;;;3.30;2.10;;;;;;;9.99;67.79;97332.53;5114165;28;20486;-71
2020/12/21 01:57:24;;;;;;;6.50;2.20;;;;;;;9.97;67.62;97334.47;5114453;28;20438;-69
2020/12/21 01:59:50;;;;;;;3.83;1.97;;;;;;;9.85;68.29;97336.44;5113331;28;20483;-70
2020/12/21 02:02:16;;;;;;;2.67;1.93;;;;;;;9.71;68.84;97331.69;5114166;28;20188;-69
2020/12/21 02:04:41;;;;;;;2.30;2.10;;;;;;;9.84;68.12;97335.63;5103248;28;20182;-68
2020/12/21 02:07:07;;;;;;;3.73;2.30;;;;;;;9.67;68.55;97334.59;5112425;28;20708;-69
2020/12/21 02:09:34;;;;;;;2.63;2.20;;;;;;;9.79;68.37;97334.44;5113366;28;20659;-70
2020/12/21 02:12:00;;;;;;;2.93;2.00;;;;;;;9.80;68.31;97323.78;5112638;28;20839;-70
2020/12/21 02:14:25;;;;;;;4.53;2.17;;;;;;;9.87;67.85;97333.72;5114339;28;20458;-71
2020/12/21 02:16:51;;;;;;;2.10;1.90;;;;;;;9.92;67.67;97321.84;5114296;27;20209;-70
2020/12/21 02:19:18;;;;;;;3.60;2.30;;;;;;;9.79;68.12;97321.34;5113312;28;20513;-70
2020/12/21 02:21:46;;;;;;;3.40;2.10;;;;;;;9.64;68.96;97321.00;5079134;28;20200;-70
2020/12/21 02:24:12;;;;;;;3.97;2.23;;;;;;;9.92;67.64;97321.84;5114130;27;20500;-69
2020/12/21 02:26:37;;;;;;;4.43;2.50;;;;;;;9.79;67.92;97316.09;5111591;28;20451;-69
2020/12/21 02:29:03;;;;;;;2.17;1.97;;;;;;;9.96;67.43;97310.06;5112267;28;20430;-69
2020/12/21 02:31:29;;;;;;;3.10;1.90;;;;;;;9.46;69.47;97316.50;5114083;28;20174;-70
2020/12/21 02:33:54;;;;;;;5.07;2.10;;;;;;;9.33;70.18;97315.97;5113784;28;20668;-70
2020/12/21 02:36:20;;;;;;;3.97;2.30;;;;;;;9.48;68.98;97317.19;5101124;28;20201;-70
2020/12/21 02:38:46;;;;;;;1.90;1.80;;;;;;;9.79;67.95;97308.25;5101495;28;20268;-69
2020/12/21 02:41:16;;;;;;;4.17;2.13;;;;;;;9.94;67.53;97300.72;5112439;28;20639;-70
2020/12/21 02:43:42;;;;;;;4.87;2.00;;;;;;;9.78;68.35;97301.38;5114081;28;20184;-69
2020/12/21 02:46:14;;;;;;;3.60;1.80;;;;;;;9.83;67.60;97306.97;5111503;28;20443;-70
2020/12/21 02:48:40;;;;;;;2.20;2.00;;;;;;;9.91;67.06;97301.00;5114977;28;20415;-68
2020/12/21 02:51:05;;;;;;;5.20;2.43;;;;;;;9.90;67.03;97302.81;5113427;28;20419;-69
2020/12/21 02:53:31;;;;;;;2.40;2.20;;;;;;;9.87;66.46;97297.88;5112120;28;20601;-68
2020/12/21 02:55:57;;;;;;;3.00;2.00;;;;;;;9.80;66.35;97304.66;5112580;28;20200;-71
2020/12/21 02:58:22;;;;;;;5.60;2.53;;;;;;;9.72;66.99;97307.16;5112456;28;20180;-70
2020/12/21 03:00:48;;;;;;;3.37;2.30;;;;;;;9.70;66.97;97306.50;5076648;28;20663;-70
2020/12/21 03:03:14;;;;;;;4.40;2.57;;;;;;;9.62;67.08;97296.75;5112120;28;20169;-70
2020/12/21 03:05:40;;;;;;;2.70;2.23;;;;;;;9.54;67.07;97302.69;5101895;28;20189;-69
2020/12/21 03:08:07;;;;;;;4.53;2.60;;;;;;;9.48;67.55;97305.88;5112465;28;20269;-69
2020/12/21 03:10:35;;;;;;;3.83;2.70;;;;;;;9.47;67.72;97306.84;5107023;28;20412;-69
2020/12/21 03:13:00;;;;;;;3.10;2.70;;;;;;;9.38;67.79;97304.13;5110856;28;20433;-68
2020/12/21 03:15:26;;;;;;;3.37;2.43;;;;;;;9.32;67.31;97304.69;5112599;28;20416;-70
2020/12/21 03:17:52;;;;;;;3.83;2.83;;;;;;;9.29;67.86;97306.75;5112527;28;20231;-70
2020/12/21 03:20:19;;;;;;;2.97;2.60;;;;;;;9.21;68.38;97307.47;5111782;28;20185;-69
2020/12/21 03:22:47;;;;;;;3.67;3.00;;;;;;;9.07;68.25;97312.16;5112462;28;20444;-70
2020/12/21 03:25:13;;;;;;;3.87;2.63;;;;;;;9.01;68.63;97304.91;5113127;28;20424;-70
2020/12/21 03:27:40;;;;;;;3.50;3.00;;;;;;;9.01;68.84;97302.28;5109163;28;20526;-70
2020/12/21 03:30:06;;;;;;;2.83;2.63;;;;;;;8.80;69.99;97310.28;5112089;28;20484;-69
2020/12/21 03:32:32;;;;;;;3.73;2.53;;;;;;;8.54;70.69;97310.00;5113299;28;20423;-68
2020/12/21 03:34:58;;;;;;;7.50;2.70;;;;;;;8.67;70.44;97305.34;5106136;28;20467;-69
2020/12/21 03:37:24;;;;;;;2.93;2.60;;;;;;;8.72;70.30;97302.31;5114140;28;20807;-68
2020/12/21 03:39:49;;;;;;;3.10;2.57;;;;;;;8.79;70.17;97297.34;5111940;28;20196;-70
2020/12/21 03:42:15;;;;;;;4.10;2.87;;;;;;;8.80;69.85;97299.81;5107859;28;20224;-69
2020/12/21 03:44:41;;;;;;;4.77;3.33;;;;;;;8.97;69.41;97306.13;5090819;28;20180;-69
2020/12/21 03:47:06;;;;;;;4.80;2.63;;;;;;;8.89;68.52;97292.94;5112250;28;20558;-70
2020/12/21 03:49:32;;;;;;;2.63;2.37;;;;;;;8.84;69.25;97295.13;5111219;28;20179;-69
2020/12/21 03:51:58;;;;;;;3.43;2.53;;;;;;;8.80;69.38;97299.81;5111735;28;20188;-70
2020/12/21 03:54:24;;;;;;;5.73;3.10;;;;;;;8.82;69.76;97302.31;5112378;28;20568;-69
2020/12/21 03:56:49;;;;;;;4.00;2.97;;;;;;;8.92;68.36;97303.13;5112277;28;20219;-68
2020/12/21 03:59:15;;;;;;;4.80;2.80;;;;;;;8.83;69.18;97302.16;5102896;28;20922;-70
2020/12/21 04:01:41;;;;;;;4.87;3.00;;;;;;;8.80;68.80;97289.38;5112091;28;20181;-67
2020/12/21 04:04:08;;;;;;;6.23;2.67;;;;;;;8.82;68.09;97284.03;5110666;28;20199;-69
2020/12/21 04:06:34;;;;;;;3.10;2.70;;;;;;;8.81;68.13;97282.38;5100809;28;20338;-69
2020/12/21 04:09:00;;;;;;;4.37;2.73;;;;;;;8.80;68.00;97278.09;5110782;28;20419;-70
2020/12/21 04:11:25;;;;;;;3.33;2.47;;;;;;;8.78;68.08;97280.03;5103591;28;20790;-71
2020/12/21 04:13:51;;;;;;;3.70;2.60;;;;;;;8.74;67.70;97285.53;5076742;28;20675;-70
2020/12/21 04:16:17;;;;;;;4.27;2.83;;;;;;;8.72;67.82;97290.06;5111378;28;20200;-70
2020/12/21 04:18:42;;;;;;;3.20;2.80;;;;;;;8.67;68.18;97278.38;5111214;28;20181;-70
2020/12/21 04:21:10;;;;;;;4.23;2.87;;;;;;;8.63;68.13;97283.06;5093381;28;20180;-70
2020/12/21 04:23:36;;;;;;;4.57;2.60;;;;;;;8.62;68.48;97284.00;5112342;28;20185;-68
2020/12/21 04:26:01;;;;;;;4.10;2.67;;;;;;;8.65;67.93;97273.28;5112548;28;20443;-70
2020/12/21 04:28:27;;;;;;;3.43;2.60;;;;;;;8.63;68.53;97277.84;5105887;28;20203;-70
2020/12/21 04:30:53;;;;;;;4.23;3.07;;;;;;;8.62;68.61;97285.81;5109610;28;20191;-69
2020/12/21 04:33:18;;;;;;;2.90;2.57;;;;;;;8.62;68.88;97281.41;5112059;28;20690;-71
2020/12/21 04:35:44;;;;;;;5.30;3.17;;;;;;;8.56;68.90;97279.34;5100545;28;20272;-69
2020/12/21 04:38:10;;;;;;;3.47;2.93;;;;;;;8.59;68.33;97286.91;5108423;28;20595;-69
2020/12/21 04:40:35;;;;;;;6.27;3.27;;;;;;;8.57;68.58;97284.44;5093867;28;20283;-69
2020/12/21 04:43:01;;;;;;;6.17;3.20;;;;;;;8.58;68.59;97274.78;5108393;28;20658;-70
2020/12/21 04:45:29;;;;;;;3.77;2.60;;;;;;;8.55;68.60;97265.44;5112050;28;20177;-70
2020/12/21 04:47:55;;;;;;;3.47;3.17;;;;;;;8.54;68.17;97263.00;5092549;28;20457;-69
2020/12/21 04:50:30;;;;;;;6.13;2.90;;;;;;;8.54;68.48;97255.16;5076526;28;20427;-69
2020/12/21 04:52:56;;;;;;;4.60;2.80;;;;;;;8.54;68.71;97263.81;5090333;28;20436;-70
2020/12/21 04:55:22;;;;;;;4.10;2.73;;;;;;;8.50;68.05;97262.44;5092049;28;20932;-69
2020/12/21 04:58:00;;;;;;;4.00;2.93;;;;;;;8.51;68.30;97265.88;5092565;28;20454;-70
2020/12/21 05:00:28;;;;;;;5.03;2.77;;;;;;;8.54;68.87;97265.59;5110966;28;20532;-70
2020/12/21 05:02:54;;;;;;;5.70;2.97;;;;;;;8.58;68.35;97259.13;5076222;28;20454;-70
2020/12/21 05:05:31;;;;;;;4.20;2.70;;;;;;;8.53;68.42;97262.16;5111421;28;20429;-70
2020/12/21 05:08:10;;;;;;;3.20;2.90;;;;;;;8.57;68.71;97271.38;5091502;28;20465;-70
2020/12/21 05:10:41;;;;;;;2.90;2.60;;;;;;;8.62;68.78;97254.47;5111253;28;20433;-69
2020/12/21 05:13:08;;;;;;;3.40;2.53;;;;;;;8.67;68.41;97253.09;5088542;28;20515;-71
2020/12/21 05:15:33;;;;;;;3.60;2.87;;;;;;;8.67;68.40;97247.84;5089569;28;20444;-69
2020/12/21 05:18:06;;;;;;;5.80;2.90;;;;;;;8.66;68.50;97240.97;5091754;28;20471;-71
2020/12/21 05:20:33;;;;;;;5.97;3.50;;;;;;;8.64;68.48;97242.91;5090694;28;20178;-70
2020/12/21 05:22:59;;;;;;;11.37;4.03;;;;;;;8.57;68.94;97253.09;5090500;28;20423;-70
2020/12/21 05:25:25;;;;;;;4.17;3.20;;;;;;;8.65;68.82;97252.41;5093276;28;20423;-69
2020/12/21 05:27:51;;;;;;;3.37;3.07;;;;;;;8.66;68.74;97243.59;5097962;28;21126;-70
2020/12/21 05:30:17;;;;;;;7.70;3.77;;;;;;;8.69;68.89;97251.16;5094063;28;20188;-68
2020/12/21 05:32:42;;;;;;;4.33;3.40;;;;;;;8.74;68.45;97248.94;5092423;28;20182;-70
2020/12/21 05:35:10;;;;;;;5.43;3.63;;;;;;;8.78;69.31;97249.47;5097403;28;20201;-70
2020/12/21 05:37:39;;;;;;;4.97;3.80;;;;;;;8.81;68.50;97245.78;5114615;28;20373;-69
2020/12/21 05:40:07;;;;;;;8.27;3.93;;;;;;;8.87;68.76;97250.44;5114274;28;20465;-69
2020/12/21 05:42:35;;;;;;;6.80;4.00;;;;;;;8.85;68.55;97241.91;5095862;28;20415;-69
2020/12/21 05:45:04;;;;;;;6.73;4.40;;;;;;;8.90;68.18;97258.81;5113206;28;20464;-70
2020/12/21 05:47:30;;;;;;;8.33;4.13;;;;;;;8.90;68.49;97263.22;5113762;28;20644;-70
2020/12/21 05:50:06;;;;;;;9.60;4.77;;;;;;;8.85;68.20;97266.25;5114077;28;20514;-70
2020/12/21 05:52:35;;;;;;;11.50;4.83;;;;;;;8.85;68.33;97268.03;5110073;28;20234;-70
2020/12/21 05:55:09;;;;;;;5.70;4.43;;;;;;;8.81;67.92;97274.53;5112377;28;20462;-70
2020/12/21 05:57:36;;;;;;;10.37;5.00;;;;;;;8.72;68.36;97265.72;5114293;28;20902;-71
2020/12/21 06:00:05;;;;;;;5.93;4.93;;;;;;;8.75;68.46;97266.28;5113861;28;20480;-70
2020/12/21 06:02:32;;;;;;;10.30;5.10;;;;;;;8.72;67.96;97269.16;5114064;28;20457;-70
2020/12/21 06:05:06;;;;;;;14.27;5.83;;;;;;;8.68;68.13;97277.41;5077926;28;20414;-69
2020/12/21 06:07:33;;;;;;;5.83;5.00;;;;;;;8.69;68.07;97281.69;5113340;28;20495;-69
2020/12/21 06:10:01;;;;;;;11.77;5.80;;;;;;;8.69;68.25;97282.53;5113753;28;20430;-70
2020/12/21 06:12:29;;;;;;;11.20;4.67;;;;;;;8.66;68.55;97277.56;5113800;28;20455;-70
2020/12/21 06:15:00;;;;;;;6.10;4.60;;;;;;;8.69;68.11;97282.53;5114038;28;20936;-69
2020/12/21 06:17:27;;;;;;;10.70;4.80;;;;;;;8.69;68.76;97285.13;5095920;28;20439;-70
2020/12/21 06:20:07;;;;;;;8.50;4.33;;;;;;;8.73;68.35;97273.41;5096511;28;20514;-70
2020/12/21 06:22:34;;;;;;;7.40;5.33;;;;;;;8.75;68.12;97286.34;5092113;28;20477;-69
2020/12/21 06:25:00;;;;;;;9.67;4.83;;;;;;;8.72;67.91;97287.44;5110656;28;20570;-68
2020/12/21 06:27:36;;;;;;;5.80;4.50;;;;;;;8.73;68.45;97272.59;5114517;28;20526;-71
2020/12/21 06:30:03;;;;;;;6.47;4.83;;;;;;;8.76;68.19;97275.75;5114774;28;20191;-70
2020/12/21 06:32:31;;;;;;;8.80;5.37;;;;;;;8.68;67.98;97273.03;5079388;28;20423;-71
2020/12/21 06:34:56;;;;;;;11.27;6.40;;;;;;;8.68;68.11;97274.78;5095312;28;20494;-70
2020/12/21 06:37:22;;;;;;;10.17;7.17;;;;;;;8.62;68.24;97270.13;5114734;28;20471;-69
2020/12/21 06:40:02;;;;;;;9.03;6.87;;;;;;;8.60;67.85;97275.47;5108712;28;20302;-70
2020/12/21 06:42:28;;;;;;;6.77;5.90;;;;;;;8.59;67.40;97272.06;5060986;28;20573;-71
2020/12/21 06:44:55;;;;;;;9.30;6.10;;;;;;;8.55;67.80;97265.44;5112692;28;20499;-70
2020/12/21 06:47:26;;;;;;;11.70;6.20;;;;;;;8.51;67.82;97260.66;5114086;28;20269;-70
2020/12/21 06:49:52;;;;;;;10.47;5.70;;;;;;;8.46;68.08;97263.66;5113452;28;20426;-71
2020/12/21 06:52:19;;;;;;;7.00;5.40;;;;;;;8.45;67.79;97260.19;5092146;28;20490;-69
2020/12/21 06:54:45;;;;;;;10.60;5.83;;;;;;;8.39;68.02;97259.91;5090326;28;20483;-70
2020/12/21 06:57:12;;;;;;;7.53;5.70;;;;;;;8.28;68.03;97253.06;5093669;28;20482;-70
2020/12/21 06:59:38;;;;;;;9.50;5.90;;;;;;;8.32;67.99;97259.63;5101728;28;20424;-69
2020/12/21 07:02:04;;;;;;;11.00;6.43;;;;;;;8.25;68.53;97250.72;5091132;28;20436;-69
2020/12/21 07:04:32;;;;;;;7.40;5.83;;;;;;;8.25;67.94;97242.88;5103624;28;20450;-71
2020/12/21 07:07:01;;;;;;;8.47;6.77;;;;;;;8.21;67.84;97250.16;5094697;28;20801;-70
2020/12/21 07:09:28;;;;;;;6.33;5.60;;;;;;;8.26;67.94;97241.91;5113654;28;20421;-69
2020/12/21 07:11:56;;;;;;;10.30;6.47;;;;;;;8.22;67.98;97238.75;5095397;28;20462;-68
2020/12/21 07:14:23;;;;;;;7.53;6.50;;;;;;;8.10;68.61;97235.44;5113251;28;20516;-69
2020/12/21 07:17:02;;;;;;;12.97;6.43;;;;;;;8.05;68.97;97223.75;5085688;28;20440;-69
2020/12/21 07:19:27;;;;;;;9.10;6.23;;;;;;;8.08;68.75;97226.91;5112650;28;20554;-70
2020/12/21 07:21:53;;;;;;;9.20;6.80;;;;;;;8.00;68.97;97229.38;5112531;28;20462;-69
2020/12/21 07:24:22;;;;;;;8.30;5.90;;;;;;;8.14;69.01;97231.59;5112783;28;20180;-69
2020/12/21 07:26:49;;;;;;;8.20;6.20;;;;;;;8.14;68.75;97223.78;5112746;28;20446;-70
2020/12/21 07:29:15;;;;;;;9.87;7.00;;;;;;;7.72;70.71;97216.16;5112948;28;20429;-69
2020/12/21 07:31:42;;;;;;;13.60;7.10;;;;;;;7.95;69.40;97223.72;5104026;28;20783;-71
2020/12/21 07:34:07;;;;;;;11.10;7.43;;;;;;;7.96;69.57;97221.00;5106822;28;20207;-68
2020/12/21 07:36:39;;;;;;;12.27;7.30;;;;;;;8.06;68.77;97231.47;5112075;28;20812;-69
2020/12/21 07:39:12;;;;;;;10.10;7.07;;;;;;;8.10;68.73;97240.66;5112616;28;20188;-68
2020/12/21 07:41:59;;;;;;;7.97;6.93;;;;;;;8.08;69.05;97245.19;5112151;28;20423;-70
2020/12/21 07:44:31;;;;;;;13.03;7.53;;;;;;;8.06;69.35;97248.91;5093766;28;20410;-71
2020/12/21 07:47:06;;;;;;;16.57;8.53;;;;;;;8.02;68.81;97248.34;5093635;28;20470;-70
2020/12/21 07:49:36;;;;;;;11.00;7.40;;;;;;;7.96;69.08;97249.72;5094043;28;20415;-70
2020/12/21 07:52:06;;;;;;;10.83;7.60;;;;;;;8.07;69.32;97253.97;5094012;28;20427;-70
2020/12/21 07:54:33;;;;;;;10.83;7.13;;;;;;;8.09;69.08;97251.25;5111437;28;20845;-71
2020/12/21 07:57:00;;;;;;;10.07;7.27;;;;;;;8.15;68.97;97248.94;5085553;28;20643;-70
2020/12/21 07:59:26;;;;;;;8.57;6.30;;;;;;;8.11;68.55;97250.16;5112493;28;20419;-70
2020/12/21 08:01:57;;;;;;;10.07;7.20;;;;;;;8.19;68.68;97253.88;5111541;28;20477;-70
2020/12/21 08:04:23;;;;;;;9.30;7.23;;;;;;;8.21;68.05;97236.28;5106424;28;20268;-70
2020/12/21 08:06:48;;;;;;;11.27;6.83;;;;;;;8.25;68.40;97245.50;5112074;28;20534;-69
2020/12/21 08:09:14;;;;;;;12.47;8.30;;;;;;;8.23;68.45;97240.41;5111991;28;20685;-69
2020/12/21 08:11:40;;;;;;;14.40;7.07;;;;;;;8.28;68.50;97238.19;5112485;28;20208;-69
2020/12/21 08:14:15;;;;;;;11.57;7.37;;;;;;;8.29;68.22;97237.25;5111253;28;20201;-68
2020/12/21 08:16:41;;;;;;;9.43;6.23;;;;;;;8.37;68.42;97236.56;5111846;28;20744;-68
2020/12/21 08:19:10;;;;;;;10.57;7.20;;;;;;;8.42;68.00;97243.97;5112530;28;20414;-70
2020/12/21 08:21:36;;;;;;;7.80;6.50;;;;;;;8.47;67.96;97241.78;5111643;28;20181;-69
2020/12/21 08:24:05;;;;;;;9.30;6.67;;;;;;;8.54;67.96;97244.69;5112161;28;20430;-70
2020/12/21 08:26:34;;;;;;;10.53;6.77;;;;;;;8.56;67.53;97250.63;5112139;28;20542;-71
2020/12/21 08:29:00;;;;;;;15.73;7.23;;;;;;;8.64;67.44;97247.28;5112172;28;20427;-70
2020/12/21 08:31:26;;;;;;;10.90;6.40;;;;;;;8.70;67.90;97255.41;5092878;28;20411;-69
2020/12/21 08:34:14;;;;;;;8.87;6.70;;;;;;;8.69;67.62;97260.78;5106187;28;20205;-69
2020/12/21 08:36:39;;;;;;;9.60;6.50;;;;;;;8.73;67.58;97262.16;5111634;28;20208;-70
2020/12/21 08:39:19;;;;;;;11.40;7.00;;;;;;;8.82;67.62;97252.66;5102457;28;20422;-69
2020/12/21 08:41:47;;;;;;;11.10;7.17;;;;;;;8.85;67.19;97249.75;5111543;28;20189;-70
2020/12/21 08:44:20;;;;;;;10.67;6.43;;;;;;;8.93;67.15;97247.28;5103814;28;20419;-70
2020/12/21 08:46:56;;;;;;;8.73;5.80;;;;;;;9.06;66.96;97255.63;5109858;28;20516;-69
2020/12/21 08:49:24;;;;;;;8.63;5.33;;;;;;;9.11;66.35;97264.81;5112161;28;20421;-69
2020/12/21 08:51:50;;;;;;;9.40;6.03;;;;;;;9.17;66.33;97272.94;5111953;28;20434;-70
2020/12/21 08:54:16;;;;;;;11.10;6.97;;;;;;;9.19;65.66;97270.19;5112185;28;20458;-69
2020/12/21 08:56:49;;;;;;;7.70;5.67;;;;;;;9.29;66.07;97264.91;5109677;28;20439;-70
2020/12/21 08:59:15;;;;;;;10.70;5.50;;;;;;;9.30;65.66;97270.00;5097923;28;20880;-71
2020/12/21 09:01:44;;;;;;;6.27;4.90;;;;;;;9.34;65.50;97268.75;5115437;28;20425;-69
2020/12/21 09:04:11;;;;;;;6.93;4.73;;;;;;;9.48;64.43;97280.56;5090782;28;20737;-68
2020/12/21 09:06:37;;;;;;;5.80;4.57;;;;;;;9.50;64.17;97269.94;5115558;28;20500;-69
2020/12/21 09:09:04;;;;;;;7.77;4.37;;;;;;;9.57;64.21;97270.19;5115208;28;20506;-70
2020/12/21 09:11:29;;;;;;;9.40;4.60;;;;;;;9.55;64.14;97262.50;5114981;28;20777;-70
2020/12/21 09:13:55;;;;;;;6.20;4.30;;;;;;;9.55;64.14;97267.72;5096285;28;20457;-70
2020/12/21 09:16:26;;;;;;;8.20;3.80;;;;;;;9.60;63.44;97267.28;5097492;28;20208;-70
2020/12/21 09:18:53;;;;;;;5.90;3.90;;;;;;;9.64;63.54;97269.47;5115375;28;20617;-70
2020/12/21 09:21:24;;;;;;;6.67;3.20;;;;;;;9.70;62.99;97270.69;5076288;28;20852;-70
2020/12/21 09:23:55;;;;;;;3.73;3.30;;;;;;;9.72;62.65;97267.91;5115299;28;20415;-69
2020/12/21 09:26:21;;;;;;;8.90;3.90;;;;;;;9.80;62.88;97260.97;5115068;28;20537;-70
2020/12/21 09:28:48;;;;;;;5.70;3.90;;;;;;;9.92;62.03;97264.22;5097094;28;20419;-70
2020/12/21 09:31:14;;;;;;;5.27;3.57;;;;;;;9.89;62.23;97263.72;5115179;28;20418;-70
2020/12/21 09:33:40;;;;;;;5.77;4.10;;;;;;;9.76;62.53;97261.41;5108809;28;20465;-69
2020/12/21 09:36:09;;;;;;;7.07;3.30;;;;;;;9.89;61.91;97263.72;5096931;28;20977;-69
2020/12/21 09:38:35;;;;;;;4.47;3.53;;;;;;;9.96;61.87;97254.28;5114964;28;20506;-69
2020/12/21 09:41:01;;;;;;;5.70;3.27;;;;;;;9.92;61.59;97258.16;5113233;28;20422;-72
2020/12/21 09:43:27;;;;;;;6.57;3.33;;;;;;;10.01;61.39;97252.06;5115207;28;20429;-69
2020/12/21 09:45:53;;;;;;;4.00;2.80;;;;;;;9.94;61.46;97249.22;5114779;28;20431;-69
2020/12/21 09:48:19;;;;;;;5.53;3.67;;;;;;;9.94;61.64;97250.97;5096574;28;20442;-70
2020/12/21 09:50:45;;;;;;;4.23;3.20;;;;;;;9.96;61.01;97249.06;5113693;28;20188;-70
2020/12/21 09:53:11;;;;;;;3.80;2.93;;;;;;;10.13;61.18;97250.03;5075624;28;20615;-70
2020/12/21 09:55:38;;;;;;;7.27;3.20;;;;;;;9.99;61.17;97241.72;5103291;28;20424;-68
2020/12/21 09:58:07;;;;;;;2.67;2.13;;;;;;;10.15;60.82;97237.63;5113535;28;20488;-69
2020/12/21 10:00:33;;;;;;;3.57;2.70;;;;;;;10.18;60.97;97241.72;5114313;28;20494;-69
2020/12/21 10:02:58;;;;;;;6.23;3.13;;;;;;;9.99;61.47;97241.72;5108675;28;20463;-70
2020/12/21 10:05:24;;;;;;;4.73;2.73;;;;;;;10.21;61.03;97244.88;5114773;28;20173;-69
2020/12/21 10:07:50;;;;;;;4.60;3.33;;;;;;;10.27;61.17;97241.66;5114047;28;20312;-70
2020/12/21 10:10:16;;;;;;;8.10;2.40;;;;;;;10.42;60.33;97246.41;5095015;28;20185;-70
2020/12/21 10:12:41;;;;;;;7.33;3.50;;;;;;;10.45;60.17;97243.50;5114380;28;20177;-69
2020/12/21 10:15:07;;;;;;;5.10;3.70;;;;;;;10.44;60.43;97240.03;5114356;28;20228;-69
2020/12/21 10:17:33;;;;;;;9.00;3.93;;;;;;;10.49;59.92;97231.72;5114191;28;20276;-70
2020/12/21 10:19:59;;;;;;;6.00;3.53;;;;;;;10.43;60.07;97227.91;5114986;28;20185;-69
2020/12/21 10:22:24;;;;;;;5.47;3.10;;;;;;;10.30;60.51;97223.03;5115080;28;20181;-71
2020/12/21 10:24:50;;;;;;;2.90;2.50;;;;;;;10.46;60.07;97218.91;5103440;28;20192;-73
2020/12/21 10:27:16;;;;;;;9.57;3.90;;;;;;;10.50;60.11;97206.38;5082207;28;20284;-70
2020/12/21 10:29:42;;;;;;;3.00;2.67;;;;;;;10.33;60.17;97215.84;5111053;28;20240;-69
2020/12/21 10:32:08;;;;;;;6.17;3.07;;;;;;;10.47;60.35;97204.84;5087898;28;20183;-70
2020/12/21 10:34:33;;;;;;;4.97;2.43;;;;;;;10.30;60.64;97199.47;5090906;28;20205;-69
2020/12/21 10:36:59;;;;;;;9.73;3.10;;;;;;;10.54;59.99;97208.53;5115682;28;20443;-71
2020/12/21 10:39:24;;;;;;;4.97;2.60;;;;;;;10.44;60.50;97211.22;5115468;28;20185;-69
2020/12/21 10:41:50;;;;;;;3.90;3.10;;;;;;;10.39;60.30;97210.03;5113956;28;20237;-70
2020/12/21 10:44:16;;;;;;;5.10;3.20;;;;;;;10.64;60.00;97199.75;5115412;28;20188;-70
2020/12/21 10:46:42;;;;;;;6.63;3.37;;;;;;;10.54;60.67;97200.66;5114103;28;20277;-69
2020/12/21 10:49:08;;;;;;;9.67;4.57;;;;;;;10.35;61.20;97195.56;5097106;28;20181;-69
2020/12/21 10:51:34;;;;;;;14.73;4.00;;;;;;;10.45;60.75;97186.66;5106239;28;20451;-69
2020/12/21 10:54:00;;;;;;;9.50;4.20;;;;;;;10.66;60.39;97187.31;5111612;28;21062;-70
2020/12/21 10:56:27;;;;;;;4.80;3.47;;;;;;;10.70;60.32;97178.19;5108274;28;20211;-70
2020/12/21 10:58:53;;;;;;;8.97;3.83;;;;;;;10.65;60.63;97175.19;5113714;28;20499;-70
2020/12/21 11:01:19;;;;;;;7.37;4.33;;;;;;;10.32;61.41;97174.91;5114087;28;20419;-69
2020/12/21 11:03:46;;;;;;;7.27;3.40;;;;;;;10.37;62.01;97170.88;5102876;28;20860;-69
2020/12/21 11:06:12;;;;;;;6.10;3.40;;;;;;;10.47;61.56;97160.31;5112231;28;20945;-69
2020/12/21 11:08:38;;;;;;;4.97;3.30;;;;;;;10.52;61.08;97155.44;5099607;28;20482;-70
2020/12/21 11:11:04;;;;;;;4.77;3.47;;;;;;;10.51;61.30;97155.59;5090415;28;20832;-71
2020/12/21 11:13:31;;;;;;;4.27;3.23;;;;;;;10.24;62.45;97162.56;5089239;28;20452;-70
2020/12/21 11:15:57;;;;;;;7.07;3.73;;;;;;;10.23;62.20;97166.97;5089125;28;20430;-69
2020/12/21 11:18:23;;;;;;;10.00;5.43;;;;;;;10.53;61.86;97158.88;5091547;28;20422;-69
2020/12/21 11:20:48;;;;;;;10.27;5.20;;;;;;;10.49;61.75;97163.59;5100062;28;20677;-69
2020/12/21 11:23:14;;;;;;;5.23;3.13;;;;;;;10.41;62.15;97174.03;5112783;28;20996;-69
2020/12/21 11:25:40;;;;;;;6.10;3.70;;;;;;;10.60;61.36;97168.59;5072225;28;20426;-67
2020/12/21 11:28:06;;;;;;;8.00;4.10;;;;;;;10.49;61.56;97171.47;5113015;28;20205;-68
2020/12/21 11:30:33;;;;;;;5.10;2.97;;;;;;;10.62;61.28;97167.63;5113809;28;20177;-70
2020/12/21 11:33:02;;;;;;;4.13;3.20;;;;;;;10.76;61.12;97167.06;5074560;28;20423;-69
2020/12/21 11:35:28;;;;;;;4.80;3.90;;;;;;;10.72;61.43;97161.31;5104590;28;20455;-70
2020/12/21 11:37:54;;;;;;;4.07;3.50;;;;;;;10.96;60.77;97169.47;5112669;28;20959;-69